Hauptseite
METAR-TAF:

METAR-TAF

Flughäfen :

Militärflugplatz Piacenza

Piacenza, Italien

Breite: 44-55N, Länge: 009-44E, Höhe: 134 m

Beobachtung

Neuester Wetterbericht von vor 11 Stunden und 25 Minuten, um 17:55 UTC
Wind 8 kt aus West
Temperatur 15°C
Luftfeuchtigkeit 100%
Luftdruck 1014 hPa
Sichtweite: 6000 m
Durchbrochene Bewölkung in der Höhe von 2500 ft, Kumulonimbus.
Aufgelockert bewölkt in der Höhe von 3000 ft
Gewitter, Leichtregen

METAR: LIMS 201755Z 26008KT 6000 -TSRA BKN025CB SCT030 15/15 Q1014 RMK OVC VIS MIN 6000 WIND THR30 23004KT WHT

Zeit: 07:20 (05:20 UTC)


TAF: fehlend

Wetterbeobachtungen und Prognosen von mehr als 4000 Flughäfen (METAR und TAF Bericht).

Die verfügbaren Stationen werden durch gelbe und rote Markierungen auf der Karte dargestellt.

Führen Sie die Maus auf sie, um den Namen der Station zu sehen.

Darauf klicken, um die Beobachtung von Wetterbeobachtungen und Prognosen zu sehen.

Um die Karte zu ändern : klicken Sie auf den grünen Tasten mit einem schwarzen Kreuz Zum Vergrößern, auf den grünen Button mit einem Gedankenstrich zu verkleinern, oder auf die grünen Pfeile für benachbarte Karten.


METAR-TAF: